sensor_id;sensor_type;location;lat;lon;timestamp;P1;durP1;ratioP1;P2;durP2;ratioP2
12271;SDS011;6198;51.446;6.698;2022-12-29T00:01:54;3.03;;;1.40;;
12271;SDS011;6198;51.446;6.698;2022-12-29T00:04:20;2.43;;;1.40;;
12271;SDS011;6198;51.446;6.698;2022-12-29T00:06:46;1.47;;;1.33;;
12271;SDS011;6198;51.446;6.698;2022-12-29T00:09:13;1.40;;;1.30;;
12271;SDS011;6198;51.446;6.698;2022-12-29T00:11:39;1.37;;;1.27;;
12271;SDS011;6198;51.446;6.698;2022-12-29T00:14:06;2.17;;;1.60;;
12271;SDS011;6198;51.446;6.698;2022-12-29T00:16:52;2.03;;;1.73;;
12271;SDS011;6198;51.446;6.698;2022-12-29T00:19:18;2.80;;;1.70;;
12271;SDS011;6198;51.446;6.698;2022-12-29T00:22:03;1.80;;;1.63;;
12271;SDS011;6198;51.446;6.698;2022-12-29T00:24:47;2.53;;;1.60;;
12271;SDS011;6198;51.446;6.698;2022-12-29T00:27:32;3.60;;;1.37;;
12271;SDS011;6198;51.446;6.698;2022-12-29T00:30:17;1.43;;;1.33;;
12271;SDS011;6198;51.446;6.698;2022-12-29T00:33:12;1.97;;;1.60;;
12271;SDS011;6198;51.446;6.698;2022-12-29T00:35:59;1.33;;;1.23;;
12271;SDS011;6198;51.446;6.698;2022-12-29T00:38:26;1.60;;;1.50;;
12271;SDS011;6198;51.446;6.698;2022-12-29T00:41:11;1.60;;;1.40;;
12271;SDS011;6198;51.446;6.698;2022-12-29T00:43:55;2.37;;;1.20;;
12271;SDS011;6198;51.446;6.698;2022-12-29T00:46:30;1.77;;;1.57;;
12271;SDS011;6198;51.446;6.698;2022-12-29T00:48:56;1.20;;;1.20;;
12271;SDS011;6198;51.446;6.698;2022-12-29T00:51:41;2.17;;;1.30;;
12271;SDS011;6198;51.446;6.698;2022-12-29T00:54:07;1.43;;;1.27;;
12271;SDS011;6198;51.446;6.698;2022-12-29T00:56:33;1.37;;;1.27;;
12271;SDS011;6198;51.446;6.698;2022-12-29T00:58:59;1.60;;;1.33;;
12271;SDS011;6198;51.446;6.698;2022-12-29T01:01:26;1.60;;;1.50;;
12271;SDS011;6198;51.446;6.698;2022-12-29T01:03:51;1.30;;;1.20;;
12271;SDS011;6198;51.446;6.698;2022-12-29T01:06:17;2.17;;;1.70;;
12271;SDS011;6198;51.446;6.698;2022-12-29T01:08:43;1.67;;;1.57;;
12271;SDS011;6198;51.446;6.698;2022-12-29T01:11:10;1.47;;;1.37;;
12271;SDS011;6198;51.446;6.698;2022-12-29T01:13:36;1.70;;;1.40;;
12271;SDS011;6198;51.446;6.698;2022-12-29T01:16:03;1.40;;;1.30;;
12271;SDS011;6198;51.446;6.698;2022-12-29T01:18:29;1.30;;;1.20;;
12271;SDS011;6198;51.446;6.698;2022-12-29T01:21:03;1.30;;;1.20;;
12271;SDS011;6198;51.446;6.698;2022-12-29T01:23:30;1.20;;;1.10;;
12271;SDS011;6198;51.446;6.698;2022-12-29T01:25:56;1.70;;;1.20;;
12271;SDS011;6198;51.446;6.698;2022-12-29T01:28:24;1.33;;;1.20;;
12271;SDS011;6198;51.446;6.698;2022-12-29T01:30:50;1.10;;;1.10;;
12271;SDS011;6198;51.446;6.698;2022-12-29T01:33:15;1.10;;;1.00;;
12271;SDS011;6198;51.446;6.698;2022-12-29T01:35:41;1.00;;;1.00;;
12271;SDS011;6198;51.446;6.698;2022-12-29T01:38:07;1.00;;;1.00;;
12271;SDS011;6198;51.446;6.698;2022-12-29T01:40:33;1.00;;;1.00;;
12271;SDS011;6198;51.446;6.698;2022-12-29T01:42:59;1.10;;;1.10;;
12271;SDS011;6198;51.446;6.698;2022-12-29T01:45:25;1.10;;;1.00;;
12271;SDS011;6198;51.446;6.698;2022-12-29T01:50:39;1.03;;;1.00;;
12271;SDS011;6198;51.446;6.698;2022-12-29T01:55:31;1.03;;;1.03;;
12271;SDS011;6198;51.446;6.698;2022-12-29T01:57:59;1.50;;;1.00;;
12271;SDS011;6198;51.446;6.698;2022-12-29T02:00:26;1.03;;;1.03;;
12271;SDS011;6198;51.446;6.698;2022-12-29T02:02:52;1.03;;;1.00;;
12271;SDS011;6198;51.446;6.698;2022-12-29T02:05:24;1.53;;;1.10;;
12271;SDS011;6198;51.446;6.698;2022-12-29T02:07:51;0.90;;;0.90;;
12271;SDS011;6198;51.446;6.698;2022-12-29T02:10:23;2.00;;;1.63;;
12271;SDS011;6198;51.446;6.698;2022-12-29T02:12:50;1.10;;;1.10;;
12271;SDS011;6198;51.446;6.698;2022-12-29T02:15:17;1.50;;;1.07;;
12271;SDS011;6198;51.446;6.698;2022-12-29T02:30:57;1.63;;;1.30;;
12271;SDS011;6198;51.446;6.698;2022-12-29T02:33:43;1.77;;;1.20;;
12271;SDS011;6198;51.446;6.698;2022-12-29T02:36:24;1.30;;;1.20;;
12271;SDS011;6198;51.446;6.698;2022-12-29T02:38:59;1.70;;;1.00;;
12271;SDS011;6198;51.446;6.698;2022-12-29T02:41:37;2.23;;;1.17;;
12271;SDS011;6198;51.446;6.698;2022-12-29T02:44:11;2.93;;;1.30;;
12271;SDS011;6198;51.446;6.698;2022-12-29T02:47:22;1.00;;;1.00;;
12271;SDS011;6198;51.446;6.698;2022-12-29T02:52:17;2.83;;;1.30;;
12271;SDS011;6198;51.446;6.698;2022-12-29T02:54:43;1.53;;;1.30;;
12271;SDS011;6198;51.446;6.698;2022-12-29T02:59:48;1.77;;;1.40;;
12271;SDS011;6198;51.446;6.698;2022-12-29T03:09:59;1.90;;;1.40;;
12271;SDS011;6198;51.446;6.698;2022-12-29T03:12:41;2.10;;;1.53;;
12271;SDS011;6198;51.446;6.698;2022-12-29T03:15:33;2.87;;;1.20;;
12271;SDS011;6198;51.446;6.698;2022-12-29T03:18:22;2.07;;;1.20;;
12271;SDS011;6198;51.446;6.698;2022-12-29T03:20:52;2.33;;;1.70;;
12271;SDS011;6198;51.446;6.698;2022-12-29T03:23:19;4.57;;;1.40;;
12271;SDS011;6198;51.446;6.698;2022-12-29T03:25:50;1.97;;;1.30;;
12271;SDS011;6198;51.446;6.698;2022-12-29T03:28:18;3.83;;;1.70;;
12271;SDS011;6198;51.446;6.698;2022-12-29T03:30:47;1.47;;;1.20;;
12271;SDS011;6198;51.446;6.698;2022-12-29T03:33:14;2.47;;;1.30;;
12271;SDS011;6198;51.446;6.698;2022-12-29T03:35:42;2.23;;;1.30;;
12271;SDS011;6198;51.446;6.698;2022-12-29T03:38:13;1.80;;;1.30;;
12271;SDS011;6198;51.446;6.698;2022-12-29T03:40:41;2.43;;;1.43;;
12271;SDS011;6198;51.446;6.698;2022-12-29T03:43:08;1.43;;;1.20;;
12271;SDS011;6198;51.446;6.698;2022-12-29T03:45:34;2.60;;;1.30;;
12271;SDS011;6198;51.446;6.698;2022-12-29T03:48:00;2.23;;;1.43;;
12271;SDS011;6198;51.446;6.698;2022-12-29T03:50:26;1.40;;;1.30;;
12271;SDS011;6198;51.446;6.698;2022-12-29T03:52:52;2.78;;;1.33;;
12271;SDS011;6198;51.446;6.698;2022-12-29T03:55:18;2.50;;;1.40;;
12271;SDS011;6198;51.446;6.698;2022-12-29T03:57:44;1.57;;;1.10;;
12271;SDS011;6198;51.446;6.698;2022-12-29T04:00:10;1.70;;;1.30;;
12271;SDS011;6198;51.446;6.698;2022-12-29T04:02:36;1.20;;;1.10;;
12271;SDS011;6198;51.446;6.698;2022-12-29T04:05:02;2.37;;;1.20;;
12271;SDS011;6198;51.446;6.698;2022-12-29T04:07:28;2.43;;;1.20;;
12271;SDS011;6198;51.446;6.698;2022-12-29T04:09:54;2.30;;;1.20;;
12271;SDS011;6198;51.446;6.698;2022-12-29T04:12:20;4.33;;;1.10;;
12271;SDS011;6198;51.446;6.698;2022-12-29T04:14:46;1.63;;;1.13;;
12271;SDS011;6198;51.446;6.698;2022-12-29T04:17:12;1.50;;;1.10;;
12271;SDS011;6198;51.446;6.698;2022-12-29T04:19:38;1.33;;;1.20;;
12271;SDS011;6198;51.446;6.698;2022-12-29T04:22:04;1.50;;;1.30;;
12271;SDS011;6198;51.446;6.698;2022-12-29T04:24:30;2.20;;;1.30;;
12271;SDS011;6198;51.446;6.698;2022-12-29T04:26:56;1.27;;;1.10;;
12271;SDS011;6198;51.446;6.698;2022-12-29T04:29:22;1.93;;;1.40;;
12271;SDS011;6198;51.446;6.698;2022-12-29T04:31:48;1.90;;;1.20;;
12271;SDS011;6198;51.446;6.698;2022-12-29T04:34:14;3.57;;;1.10;;
12271;SDS011;6198;51.446;6.698;2022-12-29T04:36:40;1.80;;;1.30;;
12271;SDS011;6198;51.446;6.698;2022-12-29T04:39:06;1.43;;;1.10;;
12271;SDS011;6198;51.446;6.698;2022-12-29T04:41:32;3.20;;;1.10;;
12271;SDS011;6198;51.446;6.698;2022-12-29T04:43:58;4.10;;;1.47;;
12271;SDS011;6198;51.446;6.698;2022-12-29T04:46:24;1.75;;;1.20;;
12271;SDS011;6198;51.446;6.698;2022-12-29T04:48:50;1.90;;;1.27;;
12271;SDS011;6198;51.446;6.698;2022-12-29T04:51:16;1.10;;;1.00;;
12271;SDS011;6198;51.446;6.698;2022-12-29T04:53:42;2.37;;;1.17;;
12271;SDS011;6198;51.446;6.698;2022-12-29T04:56:08;1.30;;;1.07;;
12271;SDS011;6198;51.446;6.698;2022-12-29T04:58:34;1.93;;;1.37;;
12271;SDS011;6198;51.446;6.698;2022-12-29T05:01:00;1.30;;;1.20;;
12271;SDS011;6198;51.446;6.698;2022-12-29T05:03:26;2.23;;;1.10;;
12271;SDS011;6198;51.446;6.698;2022-12-29T05:05:55;3.00;;;1.43;;
12271;SDS011;6198;51.446;6.698;2022-12-29T05:08:22;1.90;;;1.40;;
12271;SDS011;6198;51.446;6.698;2022-12-29T05:10:49;1.73;;;1.10;;
12271;SDS011;6198;51.446;6.698;2022-12-29T05:13:15;4.53;;;1.20;;
12271;SDS011;6198;51.446;6.698;2022-12-29T05:15:45;2.03;;;1.30;;
12271;SDS011;6198;51.446;6.698;2022-12-29T05:18:11;1.83;;;1.10;;
12271;SDS011;6198;51.446;6.698;2022-12-29T05:20:37;1.90;;;1.23;;
12271;SDS011;6198;51.446;6.698;2022-12-29T05:23:03;1.93;;;1.23;;
12271;SDS011;6198;51.446;6.698;2022-12-29T05:25:29;1.60;;;1.13;;
12271;SDS011;6198;51.446;6.698;2022-12-29T05:27:55;1.17;;;1.07;;
12271;SDS011;6198;51.446;6.698;2022-12-29T05:30:21;3.60;;;1.40;;
12271;SDS011;6198;51.446;6.698;2022-12-29T05:32:47;2.47;;;1.20;;
12271;SDS011;6198;51.446;6.698;2022-12-29T05:35:13;6.27;;;1.70;;
12271;SDS011;6198;51.446;6.698;2022-12-29T05:37:39;3.93;;;1.43;;
12271;SDS011;6198;51.446;6.698;2022-12-29T05:40:05;2.37;;;1.60;;
12271;SDS011;6198;51.446;6.698;2022-12-29T05:42:31;3.03;;;1.30;;
12271;SDS011;6198;51.446;6.698;2022-12-29T05:44:57;2.70;;;1.27;;
12271;SDS011;6198;51.446;6.698;2022-12-29T05:47:23;2.70;;;1.33;;
12271;SDS011;6198;51.446;6.698;2022-12-29T05:49:49;2.93;;;1.60;;
12271;SDS011;6198;51.446;6.698;2022-12-29T05:52:15;3.80;;;1.43;;
12271;SDS011;6198;51.446;6.698;2022-12-29T05:54:41;2.27;;;1.20;;
12271;SDS011;6198;51.446;6.698;2022-12-29T05:57:07;5.13;;;1.50;;
12271;SDS011;6198;51.446;6.698;2022-12-29T05:59:33;4.67;;;1.60;;
12271;SDS011;6198;51.446;6.698;2022-12-29T06:01:59;4.47;;;1.30;;
12271;SDS011;6198;51.446;6.698;2022-12-29T06:04:25;4.00;;;1.50;;
12271;SDS011;6198;51.446;6.698;2022-12-29T06:06:51;2.03;;;1.20;;
12271;SDS011;6198;51.446;6.698;2022-12-29T06:09:17;3.37;;;1.57;;
12271;SDS011;6198;51.446;6.698;2022-12-29T06:11:43;2.30;;;1.50;;
12271;SDS011;6198;51.446;6.698;2022-12-29T06:14:09;1.53;;;1.23;;
12271;SDS011;6198;51.446;6.698;2022-12-29T06:16:35;2.97;;;1.43;;
12271;SDS011;6198;51.446;6.698;2022-12-29T06:19:01;2.93;;;1.70;;
12271;SDS011;6198;51.446;6.698;2022-12-29T06:21:27;1.67;;;1.30;;
12271;SDS011;6198;51.446;6.698;2022-12-29T06:23:53;1.80;;;1.23;;
12271;SDS011;6198;51.446;6.698;2022-12-29T06:26:19;3.50;;;1.37;;
12271;SDS011;6198;51.446;6.698;2022-12-29T06:28:45;1.97;;;1.37;;
12271;SDS011;6198;51.446;6.698;2022-12-29T06:31:11;3.50;;;1.50;;
12271;SDS011;6198;51.446;6.698;2022-12-29T06:33:37;2.73;;;1.30;;
12271;SDS011;6198;51.446;6.698;2022-12-29T06:36:03;3.67;;;1.60;;
12271;SDS011;6198;51.446;6.698;2022-12-29T06:38:30;5.13;;;1.50;;
12271;SDS011;6198;51.446;6.698;2022-12-29T06:40:55;3.83;;;1.87;;
12271;SDS011;6198;51.446;6.698;2022-12-29T06:43:21;4.53;;;1.40;;
12271;SDS011;6198;51.446;6.698;2022-12-29T06:45:47;2.40;;;1.30;;
12271;SDS011;6198;51.446;6.698;2022-12-29T06:48:13;4.03;;;1.50;;
12271;SDS011;6198;51.446;6.698;2022-12-29T06:50:39;4.13;;;1.90;;
12271;SDS011;6198;51.446;6.698;2022-12-29T06:53:05;3.73;;;1.67;;
12271;SDS011;6198;51.446;6.698;2022-12-29T06:55:31;2.73;;;1.47;;
12271;SDS011;6198;51.446;6.698;2022-12-29T06:57:58;2.10;;;1.30;;
12271;SDS011;6198;51.446;6.698;2022-12-29T07:00:24;5.00;;;1.27;;
12271;SDS011;6198;51.446;6.698;2022-12-29T07:02:50;3.27;;;1.30;;
12271;SDS011;6198;51.446;6.698;2022-12-29T07:05:17;3.70;;;1.50;;
12271;SDS011;6198;51.446;6.698;2022-12-29T07:07:42;1.70;;;1.10;;
12271;SDS011;6198;51.446;6.698;2022-12-29T07:10:08;1.63;;;1.30;;
12271;SDS011;6198;51.446;6.698;2022-12-29T07:12:35;7.30;;;1.63;;
12271;SDS011;6198;51.446;6.698;2022-12-29T07:15:01;5.47;;;1.90;;
12271;SDS011;6198;51.446;6.698;2022-12-29T07:17:27;5.00;;;1.73;;
12271;SDS011;6198;51.446;6.698;2022-12-29T07:19:53;4.47;;;1.80;;
12271;SDS011;6198;51.446;6.698;2022-12-29T07:22:19;3.27;;;1.60;;
12271;SDS011;6198;51.446;6.698;2022-12-29T07:24:44;3.47;;;1.33;;
12271;SDS011;6198;51.446;6.698;2022-12-29T07:27:10;3.27;;;1.63;;
12271;SDS011;6198;51.446;6.698;2022-12-29T07:29:37;8.17;;;1.73;;
12271;SDS011;6198;51.446;6.698;2022-12-29T07:32:03;4.47;;;1.50;;
12271;SDS011;6198;51.446;6.698;2022-12-29T07:34:29;2.17;;;1.40;;
12271;SDS011;6198;51.446;6.698;2022-12-29T07:36:55;5.03;;;1.80;;
12271;SDS011;6198;51.446;6.698;2022-12-29T07:39:21;4.77;;;1.67;;
12271;SDS011;6198;51.446;6.698;2022-12-29T07:41:47;4.33;;;1.73;;
12271;SDS011;6198;51.446;6.698;2022-12-29T07:44:13;4.60;;;1.80;;
12271;SDS011;6198;51.446;6.698;2022-12-29T07:46:39;3.63;;;1.60;;
12271;SDS011;6198;51.446;6.698;2022-12-29T07:49:05;2.60;;;1.60;;
12271;SDS011;6198;51.446;6.698;2022-12-29T07:51:31;5.07;;;2.20;;
12271;SDS011;6198;51.446;6.698;2022-12-29T07:53:57;6.10;;;2.00;;
12271;SDS011;6198;51.446;6.698;2022-12-29T07:56:25;5.90;;;1.80;;
12271;SDS011;6198;51.446;6.698;2022-12-29T07:58:51;6.37;;;2.03;;
12271;SDS011;6198;51.446;6.698;2022-12-29T08:01:17;3.50;;;1.57;;
12271;SDS011;6198;51.446;6.698;2022-12-29T08:03:43;5.43;;;1.80;;
12271;SDS011;6198;51.446;6.698;2022-12-29T08:06:09;4.23;;;1.97;;
12271;SDS011;6198;51.446;6.698;2022-12-29T08:08:36;2.97;;;1.43;;
12271;SDS011;6198;51.446;6.698;2022-12-29T08:11:02;6.27;;;1.47;;
12271;SDS011;6198;51.446;6.698;2022-12-29T08:13:28;6.30;;;1.87;;
12271;SDS011;6198;51.446;6.698;2022-12-29T08:15:54;5.33;;;1.93;;
12271;SDS011;6198;51.446;6.698;2022-12-29T08:18:20;10.13;;;3.97;;
12271;SDS011;6198;51.446;6.698;2022-12-29T08:20:45;14.23;;;7.47;;
12271;SDS011;6198;51.446;6.698;2022-12-29T08:23:11;5.43;;;2.37;;
12271;SDS011;6198;51.446;6.698;2022-12-29T08:25:37;5.27;;;2.13;;
12271;SDS011;6198;51.446;6.698;2022-12-29T08:28:03;4.90;;;1.90;;
12271;SDS011;6198;51.446;6.698;2022-12-29T08:30:29;3.77;;;1.77;;
12271;SDS011;6198;51.446;6.698;2022-12-29T08:32:55;5.43;;;2.00;;
12271;SDS011;6198;51.446;6.698;2022-12-29T08:35:21;5.60;;;1.80;;
12271;SDS011;6198;51.446;6.698;2022-12-29T08:37:47;5.17;;;1.93;;
12271;SDS011;6198;51.446;6.698;2022-12-29T08:40:13;6.60;;;2.20;;
12271;SDS011;6198;51.446;6.698;2022-12-29T08:42:39;7.73;;;1.97;;
12271;SDS011;6198;51.446;6.698;2022-12-29T08:45:06;9.07;;;2.10;;
12271;SDS011;6198;51.446;6.698;2022-12-29T08:47:33;6.17;;;1.67;;
12271;SDS011;6198;51.446;6.698;2022-12-29T08:49:59;4.53;;;2.10;;
12271;SDS011;6198;51.446;6.698;2022-12-29T08:52:25;3.80;;;1.97;;
12271;SDS011;6198;51.446;6.698;2022-12-29T08:54:51;3.37;;;1.60;;
12271;SDS011;6198;51.446;6.698;2022-12-29T08:57:17;9.30;;;2.20;;
12271;SDS011;6198;51.446;6.698;2022-12-29T08:59:43;4.47;;;2.10;;
12271;SDS011;6198;51.446;6.698;2022-12-29T09:02:10;6.17;;;2.13;;
12271;SDS011;6198;51.446;6.698;2022-12-29T09:04:36;7.07;;;2.30;;
12271;SDS011;6198;51.446;6.698;2022-12-29T09:07:03;9.67;;;2.60;;
12271;SDS011;6198;51.446;6.698;2022-12-29T09:09:30;7.03;;;2.00;;
12271;SDS011;6198;51.446;6.698;2022-12-29T09:11:56;6.57;;;1.90;;
12271;SDS011;6198;51.446;6.698;2022-12-29T09:14:22;5.33;;;2.20;;
12271;SDS011;6198;51.446;6.698;2022-12-29T09:16:50;6.90;;;2.10;;
12271;SDS011;6198;51.446;6.698;2022-12-29T09:19:35;9.07;;;2.10;;
12271;SDS011;6198;51.446;6.698;2022-12-29T09:22:01;4.30;;;1.97;;
12271;SDS011;6198;51.446;6.698;2022-12-29T09:24:27;7.53;;;2.27;;
12271;SDS011;6198;51.446;6.698;2022-12-29T09:26:53;2.60;;;1.60;;
12271;SDS011;6198;51.446;6.698;2022-12-29T09:29:19;6.87;;;2.00;;
12271;SDS011;6198;51.446;6.698;2022-12-29T09:31:45;7.00;;;1.80;;
12271;SDS011;6198;51.446;6.698;2022-12-29T09:34:11;6.67;;;2.17;;
12271;SDS011;6198;51.446;6.698;2022-12-29T09:36:37;4.77;;;2.17;;
12271;SDS011;6198;51.446;6.698;2022-12-29T09:39:03;5.10;;;2.00;;
12271;SDS011;6198;51.446;6.698;2022-12-29T09:41:30;3.03;;;1.57;;
12271;SDS011;6198;51.446;6.698;2022-12-29T09:44:18;6.40;;;2.07;;
12271;SDS011;6198;51.446;6.698;2022-12-29T09:46:47;4.80;;;2.00;;
12271;SDS011;6198;51.446;6.698;2022-12-29T09:49:26;7.67;;;2.50;;
12271;SDS011;6198;51.446;6.698;2022-12-29T09:51:55;7.20;;;2.27;;
12271;SDS011;6198;51.446;6.698;2022-12-29T09:56:54;7.60;;;2.37;;
12271;SDS011;6198;51.446;6.698;2022-12-29T09:59:22;12.03;;;2.77;;
12271;SDS011;6198;51.446;6.698;2022-12-29T10:02:02;7.53;;;2.33;;
12271;SDS011;6198;51.446;6.698;2022-12-29T10:04:30;8.90;;;2.40;;
12271;SDS011;6198;51.446;6.698;2022-12-29T10:07:09;6.23;;;2.63;;
12271;SDS011;6198;51.446;6.698;2022-12-29T10:12:24;5.73;;;1.83;;
12271;SDS011;6198;51.446;6.698;2022-12-29T10:20:14;10.10;;;2.57;;
12271;SDS011;6198;51.446;6.698;2022-12-29T10:25:29;6.77;;;2.20;;
12271;SDS011;6198;51.446;6.698;2022-12-29T10:27:57;5.93;;;2.13;;
12271;SDS011;6198;51.446;6.698;2022-12-29T10:30:24;6.80;;;2.33;;
12271;SDS011;6198;51.446;6.698;2022-12-29T10:32:58;7.13;;;2.70;;
12271;SDS011;6198;51.446;6.698;2022-12-29T10:35:25;6.87;;;2.43;;
12271;SDS011;6198;51.446;6.698;2022-12-29T10:40:58;7.33;;;3.50;;
12271;SDS011;6198;51.446;6.698;2022-12-29T10:43:24;9.30;;;2.50;;
12271;SDS011;6198;51.446;6.698;2022-12-29T10:45:51;3.87;;;2.00;;
12271;SDS011;6198;51.446;6.698;2022-12-29T10:48:19;9.70;;;2.47;;
12271;SDS011;6198;51.446;6.698;2022-12-29T10:50:47;8.90;;;2.40;;
12271;SDS011;6198;51.446;6.698;2022-12-29T10:53:21;8.27;;;2.13;;
12271;SDS011;6198;51.446;6.698;2022-12-29T10:55:48;7.10;;;2.57;;
12271;SDS011;6198;51.446;6.698;2022-12-29T10:58:15;6.07;;;1.87;;
12271;SDS011;6198;51.446;6.698;2022-12-29T11:00:41;8.57;;;2.57;;
12271;SDS011;6198;51.446;6.698;2022-12-29T11:03:30;3.83;;;1.67;;
12271;SDS011;6198;51.446;6.698;2022-12-29T11:06:11;7.57;;;1.80;;
12271;SDS011;6198;51.446;6.698;2022-12-29T11:08:39;6.27;;;1.90;;
12271;SDS011;6198;51.446;6.698;2022-12-29T11:11:08;10.10;;;2.60;;
12271;SDS011;6198;51.446;6.698;2022-12-29T11:13:35;13.10;;;2.60;;
12271;SDS011;6198;51.446;6.698;2022-12-29T11:16:11;9.17;;;2.50;;
12271;SDS011;6198;51.446;6.698;2022-12-29T11:18:38;4.67;;;1.80;;
12271;SDS011;6198;51.446;6.698;2022-12-29T11:21:26;6.87;;;2.20;;
12271;SDS011;6198;51.446;6.698;2022-12-29T11:26:23;8.83;;;2.60;;
12271;SDS011;6198;51.446;6.698;2022-12-29T11:31:44;9.07;;;2.63;;
12271;SDS011;6198;51.446;6.698;2022-12-29T11:34:17;7.17;;;2.13;;
12271;SDS011;6198;51.446;6.698;2022-12-29T11:36:43;9.27;;;2.53;;
12271;SDS011;6198;51.446;6.698;2022-12-29T11:39:19;7.20;;;2.20;;
12271;SDS011;6198;51.446;6.698;2022-12-29T11:41:51;7.53;;;2.40;;
12271;SDS011;6198;51.446;6.698;2022-12-29T11:44:17;16.80;;;9.50;;
12271;SDS011;6198;51.446;6.698;2022-12-29T11:46:44;16.47;;;9.07;;
12271;SDS011;6198;51.446;6.698;2022-12-29T11:49:18;10.93;;;4.90;;
12271;SDS011;6198;51.446;6.698;2022-12-29T11:51:45;8.97;;;4.20;;
12271;SDS011;6198;51.446;6.698;2022-12-29T11:54:17;6.73;;;3.27;;
12271;SDS011;6198;51.446;6.698;2022-12-29T11:56:44;11.33;;;3.00;;
12271;SDS011;6198;51.446;6.698;2022-12-29T12:01:55;8.87;;;2.50;;
12271;SDS011;6198;51.446;6.698;2022-12-29T12:04:22;6.47;;;2.13;;
12271;SDS011;6198;51.446;6.698;2022-12-29T12:07:36;9.93;;;2.60;;
12271;SDS011;6198;51.446;6.698;2022-12-29T12:09:36;8.80;;;2.43;;
12271;SDS011;6198;51.446;6.698;2022-12-29T12:12:07;6.07;;;1.97;;
12271;SDS011;6198;51.446;6.698;2022-12-29T12:14:42;7.17;;;2.47;;
12271;SDS011;6198;51.446;6.698;2022-12-29T12:17:13;11.30;;;2.27;;
12271;SDS011;6198;51.446;6.698;2022-12-29T12:22:34;6.93;;;2.20;;
12271;SDS011;6198;51.446;6.698;2022-12-29T12:25:09;8.73;;;3.20;;
12271;SDS011;6198;51.446;6.698;2022-12-29T12:27:38;8.63;;;2.70;;
12271;SDS011;6198;51.446;6.698;2022-12-29T12:30:16;4.23;;;1.70;;
12271;SDS011;6198;51.446;6.698;2022-12-29T12:32:47;5.43;;;2.37;;
12271;SDS011;6198;51.446;6.698;2022-12-29T12:35:15;6.23;;;2.37;;
12271;SDS011;6198;51.446;6.698;2022-12-29T12:37:52;10.50;;;2.93;;
12271;SDS011;6198;51.446;6.698;2022-12-29T12:48:06;7.37;;;2.33;;
12271;SDS011;6198;51.446;6.698;2022-12-29T12:56:03;5.03;;;2.30;;
12271;SDS011;6198;51.446;6.698;2022-12-29T13:06:34;5.67;;;2.20;;
12271;SDS011;6198;51.446;6.698;2022-12-29T13:09:08;5.93;;;2.60;;
12271;SDS011;6198;51.446;6.698;2022-12-29T13:16:53;7.03;;;2.00;;
12271;SDS011;6198;51.446;6.698;2022-12-29T13:19:30;10.30;;;3.10;;
12271;SDS011;6198;51.446;6.698;2022-12-29T13:27:22;10.90;;;3.17;;
12271;SDS011;6198;51.446;6.698;2022-12-29T13:37:47;8.77;;;2.40;;
12271;SDS011;6198;51.446;6.698;2022-12-29T13:40:15;5.50;;;2.00;;
12271;SDS011;6198;51.446;6.698;2022-12-29T13:42:42;6.30;;;2.53;;
12271;SDS011;6198;51.446;6.698;2022-12-29T13:45:13;7.70;;;2.43;;
12271;SDS011;6198;51.446;6.698;2022-12-29T13:47:42;7.73;;;2.33;;
12271;SDS011;6198;51.446;6.698;2022-12-29T13:50:20;6.53;;;2.50;;
12271;SDS011;6198;51.446;6.698;2022-12-29T13:52:55;11.37;;;3.40;;
12271;SDS011;6198;51.446;6.698;2022-12-29T13:55:26;6.33;;;2.53;;
12271;SDS011;6198;51.446;6.698;2022-12-29T14:00:44;7.73;;;2.67;;
12271;SDS011;6198;51.446;6.698;2022-12-29T14:05:44;8.97;;;2.53;;
12271;SDS011;6198;51.446;6.698;2022-12-29T14:08:15;8.67;;;2.30;;
12271;SDS011;6198;51.446;6.698;2022-12-29T14:10:49;6.90;;;2.70;;
12271;SDS011;6198;51.446;6.698;2022-12-29T14:13:20;6.07;;;2.07;;
12271;SDS011;6198;51.446;6.698;2022-12-29T14:15:50;8.73;;;2.77;;
12271;SDS011;6198;51.446;6.698;2022-12-29T14:18:18;8.60;;;2.00;;
12271;SDS011;6198;51.446;6.698;2022-12-29T14:25:55;8.33;;;2.63;;
12271;SDS011;6198;51.446;6.698;2022-12-29T14:28:26;6.13;;;2.83;;
12271;SDS011;6198;51.446;6.698;2022-12-29T14:30:53;6.33;;;2.23;;
12271;SDS011;6198;51.446;6.698;2022-12-29T14:33:20;8.37;;;2.60;;
12271;SDS011;6198;51.446;6.698;2022-12-29T14:35:47;8.93;;;2.87;;
12271;SDS011;6198;51.446;6.698;2022-12-29T14:38:18;8.53;;;2.43;;
12271;SDS011;6198;51.446;6.698;2022-12-29T14:40:45;6.33;;;2.00;;
12271;SDS011;6198;51.446;6.698;2022-12-29T14:43:18;7.10;;;2.00;;
12271;SDS011;6198;51.446;6.698;2022-12-29T14:45:51;12.37;;;4.20;;
12271;SDS011;6198;51.446;6.698;2022-12-29T14:48:22;27.43;;;12.40;;
12271;SDS011;6198;51.446;6.698;2022-12-29T14:50:54;9.80;;;3.97;;
12271;SDS011;6198;51.446;6.698;2022-12-29T14:56:08;4.50;;;2.23;;
12271;SDS011;6198;51.446;6.698;2022-12-29T15:01:24;8.03;;;2.43;;
12271;SDS011;6198;51.446;6.698;2022-12-29T15:03:53;5.57;;;2.07;;
12271;SDS011;6198;51.446;6.698;2022-12-29T15:06:20;9.97;;;2.63;;
12271;SDS011;6198;51.446;6.698;2022-12-29T15:08:53;8.90;;;2.53;;
12271;SDS011;6198;51.446;6.698;2022-12-29T15:11:21;5.73;;;1.93;;
12271;SDS011;6198;51.446;6.698;2022-12-29T15:13:47;6.83;;;1.93;;
12271;SDS011;6198;51.446;6.698;2022-12-29T15:18:49;5.90;;;2.30;;
12271;SDS011;6198;51.446;6.698;2022-12-29T15:21:16;5.50;;;2.17;;
12271;SDS011;6198;51.446;6.698;2022-12-29T15:23:42;8.63;;;3.00;;
12271;SDS011;6198;51.446;6.698;2022-12-29T15:26:09;10.00;;;2.77;;
12271;SDS011;6198;51.446;6.698;2022-12-29T15:28:39;9.30;;;2.80;;
12271;SDS011;6198;51.446;6.698;2022-12-29T15:31:09;4.73;;;2.20;;
12271;SDS011;6198;51.446;6.698;2022-12-29T15:33:37;5.67;;;2.50;;
12271;SDS011;6198;51.446;6.698;2022-12-29T15:36:05;7.93;;;2.40;;
12271;SDS011;6198;51.446;6.698;2022-12-29T15:38:35;6.90;;;2.20;;
12271;SDS011;6198;51.446;6.698;2022-12-29T15:41:05;11.17;;;2.47;;
12271;SDS011;6198;51.446;6.698;2022-12-29T15:43:36;5.67;;;2.00;;
12271;SDS011;6198;51.446;6.698;2022-12-29T15:46:04;10.27;;;3.23;;
12271;SDS011;6198;51.446;6.698;2022-12-29T15:48:30;8.47;;;2.90;;
12271;SDS011;6198;51.446;6.698;2022-12-29T15:50:57;7.67;;;2.30;;
12271;SDS011;6198;51.446;6.698;2022-12-29T15:53:30;7.60;;;2.10;;
12271;SDS011;6198;51.446;6.698;2022-12-29T15:55:59;8.93;;;2.60;;
12271;SDS011;6198;51.446;6.698;2022-12-29T15:58:27;5.40;;;1.93;;
12271;SDS011;6198;51.446;6.698;2022-12-29T16:00:57;9.73;;;2.27;;
12271;SDS011;6198;51.446;6.698;2022-12-29T16:03:31;7.33;;;2.43;;
12271;SDS011;6198;51.446;6.698;2022-12-29T16:06:08;6.90;;;1.80;;
12271;SDS011;6198;51.446;6.698;2022-12-29T16:08:36;4.37;;;2.20;;
12271;SDS011;6198;51.446;6.698;2022-12-29T16:11:03;7.60;;;2.27;;
12271;SDS011;6198;51.446;6.698;2022-12-29T16:13:33;7.17;;;2.43;;
12271;SDS011;6198;51.446;6.698;2022-12-29T16:16:15;5.53;;;3.07;;
12271;SDS011;6198;51.446;6.698;2022-12-29T16:18:42;6.33;;;2.03;;
12271;SDS011;6198;51.446;6.698;2022-12-29T16:21:22;7.73;;;2.80;;
12271;SDS011;6198;51.446;6.698;2022-12-29T16:23:51;9.43;;;4.00;;
12271;SDS011;6198;51.446;6.698;2022-12-29T16:26:19;9.03;;;3.73;;
12271;SDS011;6198;51.446;6.698;2022-12-29T16:28:54;8.23;;;3.27;;
12271;SDS011;6198;51.446;6.698;2022-12-29T16:34:28;10.90;;;3.03;;
12271;SDS011;6198;51.446;6.698;2022-12-29T16:36:59;14.40;;;7.10;;
12271;SDS011;6198;51.446;6.698;2022-12-29T16:41:51;16.13;;;8.13;;
12271;SDS011;6198;51.446;6.698;2022-12-29T16:44:18;9.50;;;3.03;;
12271;SDS011;6198;51.446;6.698;2022-12-29T16:49:30;5.10;;;1.90;;
12271;SDS011;6198;51.446;6.698;2022-12-29T16:51:56;6.13;;;2.20;;
12271;SDS011;6198;51.446;6.698;2022-12-29T16:54:31;4.67;;;2.17;;
12271;SDS011;6198;51.446;6.698;2022-12-29T16:56:58;5.60;;;1.70;;
12271;SDS011;6198;51.446;6.698;2022-12-29T16:59:32;3.67;;;1.67;;
12271;SDS011;6198;51.446;6.698;2022-12-29T17:01:59;5.63;;;1.90;;
12271;SDS011;6198;51.446;6.698;2022-12-29T17:04:28;4.03;;;1.60;;
12271;SDS011;6198;51.446;6.698;2022-12-29T17:06:54;4.60;;;1.80;;
12271;SDS011;6198;51.446;6.698;2022-12-29T17:09:21;3.77;;;1.83;;
12271;SDS011;6198;51.446;6.698;2022-12-29T17:11:58;2.47;;;1.30;;
12271;SDS011;6198;51.446;6.698;2022-12-29T17:16:56;2.93;;;1.47;;
12271;SDS011;6198;51.446;6.698;2022-12-29T17:19:35;3.53;;;1.43;;